Terminal Aerodrome Forecast
Issued by NWS Chicago, IL

Home | Current Version | Previous Version | Graphics & Text | Print | Product List | Glossary On
Versions: 1 2 3 4 5 6 7 8 9 10 11 12 13 14 15 16 17 18 19 20 21 22 23 24 25 26 27 28
024
FTUS43 KLOT 022334
TAFRFD
TAF
KRFD 022334Z 0300/0324 09010KT 2SM -DZ BR OVC007
     FM030200 09006KT 1SM -DZ BR OVC003
     FM030500 VRB05KT 3/4SM BR OVC002
     FM030900 19006KT 4SM BR OVC007
     FM031100 22012G19KT P6SM BKN015
     FM031400 23015G25KT P6SM OVC015 PROB30 0314/0318 5SM -SHRASN
     FM031900 28015G25KT P6SM OVC020=

USA.gov is the U.S. government's official web portal to all federal, state and local government web resources and services.